sensor_id;sensor_type;location;lat;lon;timestamp;P1;durP1;ratioP1;P2;durP2;ratioP2
23242;SDS011;11790;49.578;11.214;2022-07-29T00:01:15;1.58;;;1.33;;
23242;SDS011;11790;49.578;11.214;2022-07-29T00:06:16;2.35;;;1.48;;
23242;SDS011;11790;49.578;11.214;2022-07-29T00:11:16;8.23;;;1.55;;
23242;SDS011;11790;49.578;11.214;2022-07-29T00:16:16;3.40;;;1.55;;
23242;SDS011;11790;49.578;11.214;2022-07-29T00:21:17;4.80;;;1.30;;
23242;SDS011;11790;49.578;11.214;2022-07-29T00:26:17;5.60;;;1.50;;
23242;SDS011;11790;49.578;11.214;2022-07-29T00:31:17;3.70;;;1.83;;
23242;SDS011;11790;49.578;11.214;2022-07-29T00:36:17;4.13;;;1.35;;
23242;SDS011;11790;49.578;11.214;2022-07-29T00:41:18;3.97;;;1.58;;
23242;SDS011;11790;49.578;11.214;2022-07-29T00:46:18;3.42;;;1.60;;
23242;SDS011;11790;49.578;11.214;2022-07-29T00:51:18;3.55;;;1.58;;
23242;SDS011;11790;49.578;11.214;2022-07-29T00:56:19;3.30;;;1.50;;
23242;SDS011;11790;49.578;11.214;2022-07-29T01:01:19;2.75;;;1.50;;
23242;SDS011;11790;49.578;11.214;2022-07-29T01:06:19;3.03;;;1.60;;
23242;SDS011;11790;49.578;11.214;2022-07-29T01:11:20;5.82;;;1.70;;
23242;SDS011;11790;49.578;11.214;2022-07-29T01:16:31;5.57;;;1.50;;
23242;SDS011;11790;49.578;11.214;2022-07-29T01:32:20;3.90;;;1.55;;
23242;SDS011;11790;49.578;11.214;2022-07-29T01:37:26;4.78;;;1.85;;
23242;SDS011;11790;49.578;11.214;2022-07-29T01:42:44;4.65;;;1.70;;
23242;SDS011;11790;49.578;11.214;2022-07-29T01:48:05;7.55;;;1.58;;
23242;SDS011;11790;49.578;11.214;2022-07-29T01:53:07;4.28;;;1.40;;
23242;SDS011;11790;49.578;11.214;2022-07-29T01:58:08;2.85;;;1.45;;
23242;SDS011;11790;49.578;11.214;2022-07-29T02:03:11;7.43;;;1.58;;
23242;SDS011;11790;49.578;11.214;2022-07-29T02:08:11;3.05;;;1.60;;
23242;SDS011;11790;49.578;11.214;2022-07-29T02:13:12;5.03;;;1.60;;
23242;SDS011;11790;49.578;11.214;2022-07-29T02:18:17;2.85;;;1.65;;
23242;SDS011;11790;49.578;11.214;2022-07-29T02:23:19;2.45;;;1.40;;
23242;SDS011;11790;49.578;11.214;2022-07-29T02:28:21;1.88;;;1.30;;
23242;SDS011;11790;49.578;11.214;2022-07-29T02:33:22;3.50;;;1.48;;
23242;SDS011;11790;49.578;11.214;2022-07-29T02:38:23;2.97;;;1.50;;
23242;SDS011;11790;49.578;11.214;2022-07-29T02:43:43;3.45;;;1.42;;
23242;SDS011;11790;49.578;11.214;2022-07-29T02:54:01;4.13;;;1.50;;
23242;SDS011;11790;49.578;11.214;2022-07-29T02:59:04;2.35;;;1.58;;
23242;SDS011;11790;49.578;11.214;2022-07-29T03:04:05;3.47;;;1.58;;
23242;SDS011;11790;49.578;11.214;2022-07-29T03:09:08;4.07;;;1.45;;
23242;SDS011;11790;49.578;11.214;2022-07-29T03:14:09;5.05;;;1.52;;
23242;SDS011;11790;49.578;11.214;2022-07-29T03:19:10;4.55;;;1.40;;
23242;SDS011;11790;49.578;11.214;2022-07-29T03:24:23;2.58;;;1.70;;
23242;SDS011;11790;49.578;11.214;2022-07-29T03:29:23;5.30;;;1.92;;
23242;SDS011;11790;49.578;11.214;2022-07-29T03:34:24;3.88;;;1.60;;
23242;SDS011;11790;49.578;11.214;2022-07-29T03:39:25;4.18;;;1.90;;
23242;SDS011;11790;49.578;11.214;2022-07-29T03:44:26;2.85;;;1.70;;
23242;SDS011;11790;49.578;11.214;2022-07-29T03:49:27;4.38;;;1.80;;
23242;SDS011;11790;49.578;11.214;2022-07-29T03:54:27;2.85;;;1.73;;
23242;SDS011;11790;49.578;11.214;2022-07-29T03:59:28;3.17;;;1.73;;
23242;SDS011;11790;49.578;11.214;2022-07-29T04:04:34;5.82;;;1.63;;
23242;SDS011;11790;49.578;11.214;2022-07-29T04:09:34;2.25;;;1.40;;
23242;SDS011;11790;49.578;11.214;2022-07-29T04:14:34;3.42;;;1.45;;
23242;SDS011;11790;49.578;11.214;2022-07-29T04:19:35;3.55;;;1.38;;
23242;SDS011;11790;49.578;11.214;2022-07-29T04:24:35;5.03;;;1.90;;
23242;SDS011;11790;49.578;11.214;2022-07-29T04:29:35;6.18;;;2.05;;
23242;SDS011;11790;49.578;11.214;2022-07-29T04:34:36;3.55;;;1.58;;
23242;SDS011;11790;49.578;11.214;2022-07-29T04:39:36;4.90;;;1.83;;
23242;SDS011;11790;49.578;11.214;2022-07-29T04:44:36;5.13;;;1.70;;
23242;SDS011;11790;49.578;11.214;2022-07-29T04:49:39;2.92;;;1.80;;
23242;SDS011;11790;49.578;11.214;2022-07-29T04:54:39;6.35;;;1.92;;
23242;SDS011;11790;49.578;11.214;2022-07-29T04:59:39;2.63;;;1.70;;
23242;SDS011;11790;49.578;11.214;2022-07-29T05:04:40;5.47;;;2.03;;
23242;SDS011;11790;49.578;11.214;2022-07-29T05:09:40;3.58;;;2.00;;
23242;SDS011;11790;49.578;11.214;2022-07-29T05:14:40;3.33;;;1.95;;
23242;SDS011;11790;49.578;11.214;2022-07-29T05:19:40;2.90;;;1.60;;
23242;SDS011;11790;49.578;11.214;2022-07-29T05:24:41;6.43;;;2.10;;
23242;SDS011;11790;49.578;11.214;2022-07-29T05:29:41;4.13;;;1.77;;
23242;SDS011;11790;49.578;11.214;2022-07-29T05:34:41;3.80;;;2.10;;
23242;SDS011;11790;49.578;11.214;2022-07-29T05:39:41;2.75;;;1.90;;
23242;SDS011;11790;49.578;11.214;2022-07-29T05:44:42;3.95;;;1.90;;
23242;SDS011;11790;49.578;11.214;2022-07-29T05:49:42;4.35;;;1.77;;
23242;SDS011;11790;49.578;11.214;2022-07-29T05:54:42;2.92;;;1.83;;
23242;SDS011;11790;49.578;11.214;2022-07-29T05:59:43;3.03;;;1.70;;
23242;SDS011;11790;49.578;11.214;2022-07-29T06:04:43;2.85;;;1.58;;
23242;SDS011;11790;49.578;11.214;2022-07-29T06:09:44;4.68;;;1.92;;
23242;SDS011;11790;49.578;11.214;2022-07-29T06:14:44;7.68;;;1.90;;
23242;SDS011;11790;49.578;11.214;2022-07-29T06:19:44;5.28;;;1.52;;
23242;SDS011;11790;49.578;11.214;2022-07-29T06:24:44;3.70;;;1.60;;
23242;SDS011;11790;49.578;11.214;2022-07-29T06:29:45;6.72;;;1.70;;
23242;SDS011;11790;49.578;11.214;2022-07-29T06:34:45;2.65;;;1.48;;
23242;SDS011;11790;49.578;11.214;2022-07-29T06:39:45;2.90;;;1.50;;
23242;SDS011;11790;49.578;11.214;2022-07-29T06:44:45;4.90;;;1.67;;
23242;SDS011;11790;49.578;11.214;2022-07-29T06:49:46;2.55;;;1.60;;
23242;SDS011;11790;49.578;11.214;2022-07-29T06:54:46;3.08;;;1.63;;
23242;SDS011;11790;49.578;11.214;2022-07-29T06:59:48;3.45;;;1.90;;
23242;SDS011;11790;49.578;11.214;2022-07-29T07:04:48;2.67;;;1.60;;
23242;SDS011;11790;49.578;11.214;2022-07-29T07:09:48;4.18;;;1.80;;
23242;SDS011;11790;49.578;11.214;2022-07-29T07:14:48;2.35;;;1.50;;
23242;SDS011;11790;49.578;11.214;2022-07-29T07:19:49;2.87;;;1.87;;
23242;SDS011;11790;49.578;11.214;2022-07-29T07:24:49;2.15;;;1.42;;
23242;SDS011;11790;49.578;11.214;2022-07-29T07:29:49;1.98;;;1.40;;
23242;SDS011;11790;49.578;11.214;2022-07-29T07:34:50;5.47;;;1.70;;
23242;SDS011;11790;49.578;11.214;2022-07-29T07:39:50;5.68;;;1.80;;
23242;SDS011;11790;49.578;11.214;2022-07-29T07:44:51;5.03;;;1.70;;
23242;SDS011;11790;49.578;11.214;2022-07-29T07:49:52;4.88;;;2.00;;
23242;SDS011;11790;49.578;11.214;2022-07-29T07:54:52;4.70;;;1.90;;
23242;SDS011;11790;49.578;11.214;2022-07-29T07:59:53;2.40;;;1.90;;
23242;SDS011;11790;49.578;11.214;2022-07-29T08:04:53;2.85;;;2.00;;
23242;SDS011;11790;49.578;11.214;2022-07-29T08:09:53;3.10;;;2.00;;
23242;SDS011;11790;49.578;11.214;2022-07-29T08:14:53;3.25;;;1.80;;
23242;SDS011;11790;49.578;11.214;2022-07-29T08:19:54;6.00;;;2.20;;
23242;SDS011;11790;49.578;11.214;2022-07-29T08:24:54;2.73;;;1.90;;
23242;SDS011;11790;49.578;11.214;2022-07-29T08:29:56;3.03;;;1.73;;
23242;SDS011;11790;49.578;11.214;2022-07-29T08:34:56;8.90;;;1.83;;
23242;SDS011;11790;49.578;11.214;2022-07-29T08:39:57;2.95;;;1.88;;
23242;SDS011;11790;49.578;11.214;2022-07-29T08:44:57;4.43;;;1.95;;
23242;SDS011;11790;49.578;11.214;2022-07-29T08:49:58;3.30;;;2.10;;
23242;SDS011;11790;49.578;11.214;2022-07-29T08:54:58;3.83;;;2.00;;
23242;SDS011;11790;49.578;11.214;2022-07-29T08:59:59;2.10;;;1.90;;
23242;SDS011;11790;49.578;11.214;2022-07-29T09:05:00;2.95;;;2.00;;
23242;SDS011;11790;49.578;11.214;2022-07-29T09:10:01;3.83;;;2.20;;
23242;SDS011;11790;49.578;11.214;2022-07-29T09:15:01;2.95;;;2.20;;
23242;SDS011;11790;49.578;11.214;2022-07-29T09:20:08;3.63;;;1.98;;
23242;SDS011;11790;49.578;11.214;2022-07-29T09:25:11;3.60;;;2.30;;
23242;SDS011;11790;49.578;11.214;2022-07-29T09:30:13;2.45;;;2.00;;
23242;SDS011;11790;49.578;11.214;2022-07-29T09:35:24;3.40;;;1.90;;
23242;SDS011;11790;49.578;11.214;2022-07-29T09:40:26;8.00;;;1.98;;
23242;SDS011;11790;49.578;11.214;2022-07-29T09:45:30;3.22;;;2.10;;
23242;SDS011;11790;49.578;11.214;2022-07-29T09:50:39;2.45;;;2.17;;
23242;SDS011;11790;49.578;11.214;2022-07-29T09:55:46;3.00;;;2.40;;
23242;SDS011;11790;49.578;11.214;2022-07-29T10:00:47;3.22;;;2.40;;
23242;SDS011;11790;49.578;11.214;2022-07-29T10:06:06;3.42;;;2.45;;
23242;SDS011;11790;49.578;11.214;2022-07-29T10:16:10;3.30;;;2.30;;
23242;SDS011;11790;49.578;11.214;2022-07-29T10:21:11;2.90;;;2.57;;
23242;SDS011;11790;49.578;11.214;2022-07-29T10:26:12;4.72;;;2.40;;
23242;SDS011;11790;49.578;11.214;2022-07-29T10:31:15;3.42;;;2.33;;
23242;SDS011;11790;49.578;11.214;2022-07-29T10:36:54;2.75;;;2.30;;
23242;SDS011;11790;49.578;11.214;2022-07-29T10:41:56;4.70;;;2.55;;
23242;SDS011;11790;49.578;11.214;2022-07-29T10:46:58;3.88;;;2.38;;
23242;SDS011;11790;49.578;11.214;2022-07-29T10:52:11;2.92;;;2.65;;
23242;SDS011;11790;49.578;11.214;2022-07-29T10:57:27;3.58;;;2.50;;
23242;SDS011;11790;49.578;11.214;2022-07-29T11:07:40;4.20;;;2.20;;
23242;SDS011;11790;49.578;11.214;2022-07-29T11:12:59;3.05;;;2.50;;
23242;SDS011;11790;49.578;11.214;2022-07-29T11:28:26;4.45;;;2.60;;
23242;SDS011;11790;49.578;11.214;2022-07-29T11:33:27;3.53;;;2.83;;
23242;SDS011;11790;49.578;11.214;2022-07-29T11:38:28;4.75;;;2.60;;
23242;SDS011;11790;49.578;11.214;2022-07-29T11:48:47;4.80;;;2.60;;
23242;SDS011;11790;49.578;11.214;2022-07-29T11:53:48;4.20;;;2.47;;
23242;SDS011;11790;49.578;11.214;2022-07-29T11:58:49;4.00;;;2.88;;
23242;SDS011;11790;49.578;11.214;2022-07-29T12:03:49;9.95;;;3.10;;
23242;SDS011;11790;49.578;11.214;2022-07-29T12:09:08;3.95;;;3.05;;
23242;SDS011;11790;49.578;11.214;2022-07-29T12:14:08;4.50;;;2.78;;
23242;SDS011;11790;49.578;11.214;2022-07-29T12:19:08;4.35;;;3.30;;
23242;SDS011;11790;49.578;11.214;2022-07-29T12:24:09;3.72;;;2.88;;
23242;SDS011;11790;49.578;11.214;2022-07-29T12:29:14;5.80;;;2.90;;
23242;SDS011;11790;49.578;11.214;2022-07-29T12:34:15;4.35;;;2.83;;
23242;SDS011;11790;49.578;11.214;2022-07-29T12:39:16;3.53;;;2.77;;
23242;SDS011;11790;49.578;11.214;2022-07-29T12:44:17;2.90;;;2.60;;
23242;SDS011;11790;49.578;11.214;2022-07-29T12:49:23;6.95;;;2.95;;
23242;SDS011;11790;49.578;11.214;2022-07-29T12:54:23;4.50;;;2.97;;
23242;SDS011;11790;49.578;11.214;2022-07-29T12:59:23;3.20;;;2.80;;
23242;SDS011;11790;49.578;11.214;2022-07-29T13:04:27;3.38;;;2.88;;
23242;SDS011;11790;49.578;11.214;2022-07-29T13:09:38;4.15;;;2.88;;
23242;SDS011;11790;49.578;11.214;2022-07-29T13:14:40;6.35;;;2.75;;
23242;SDS011;11790;49.578;11.214;2022-07-29T13:24:51;3.10;;;2.23;;
23242;SDS011;11790;49.578;11.214;2022-07-29T13:29:52;2.38;;;2.10;;
23242;SDS011;11790;49.578;11.214;2022-07-29T13:34:52;2.53;;;1.90;;
23242;SDS011;11790;49.578;11.214;2022-07-29T13:39:53;1.70;;;1.60;;
23242;SDS011;11790;49.578;11.214;2022-07-29T13:44:54;3.65;;;1.90;;
23242;SDS011;11790;49.578;11.214;2022-07-29T13:49:54;3.03;;;2.20;;
23242;SDS011;11790;49.578;11.214;2022-07-29T13:54:55;2.22;;;1.52;;
23242;SDS011;11790;49.578;11.214;2022-07-29T13:59:55;3.93;;;1.63;;
23242;SDS011;11790;49.578;11.214;2022-07-29T14:04:56;2.78;;;1.70;;
23242;SDS011;11790;49.578;11.214;2022-07-29T14:09:56;2.33;;;1.77;;
23242;SDS011;11790;49.578;11.214;2022-07-29T14:14:56;3.28;;;2.20;;
23242;SDS011;11790;49.578;11.214;2022-07-29T14:19:57;7.15;;;2.60;;
23242;SDS011;11790;49.578;11.214;2022-07-29T14:24:57;9.57;;;2.85;;
23242;SDS011;11790;49.578;11.214;2022-07-29T14:29:57;9.15;;;3.08;;
23242;SDS011;11790;49.578;11.214;2022-07-29T14:34:57;7.77;;;3.23;;
23242;SDS011;11790;49.578;11.214;2022-07-29T14:39:58;7.00;;;3.70;;
23242;SDS011;11790;49.578;11.214;2022-07-29T14:45:01;6.82;;;3.80;;
23242;SDS011;11790;49.578;11.214;2022-07-29T14:50:02;9.70;;;3.45;;
23242;SDS011;11790;49.578;11.214;2022-07-29T14:55:03;7.47;;;3.65;;
23242;SDS011;11790;49.578;11.214;2022-07-29T15:00:04;5.75;;;3.75;;
23242;SDS011;11790;49.578;11.214;2022-07-29T15:05:05;6.97;;;3.78;;
23242;SDS011;11790;49.578;11.214;2022-07-29T15:10:05;6.63;;;3.88;;
23242;SDS011;11790;49.578;11.214;2022-07-29T15:15:06;9.00;;;4.18;;
23242;SDS011;11790;49.578;11.214;2022-07-29T15:20:07;5.10;;;3.65;;
23242;SDS011;11790;49.578;11.214;2022-07-29T15:25:07;5.10;;;3.42;;
23242;SDS011;11790;49.578;11.214;2022-07-29T15:30:08;6.25;;;3.70;;
23242;SDS011;11790;49.578;11.214;2022-07-29T15:35:08;6.88;;;3.40;;
23242;SDS011;11790;49.578;11.214;2022-07-29T15:40:10;5.97;;;3.88;;
23242;SDS011;11790;49.578;11.214;2022-07-29T15:45:10;6.35;;;3.40;;
23242;SDS011;11790;49.578;11.214;2022-07-29T15:50:11;5.55;;;3.28;;
23242;SDS011;11790;49.578;11.214;2022-07-29T15:55:15;6.93;;;3.17;;
23242;SDS011;11790;49.578;11.214;2022-07-29T16:00:16;6.30;;;3.53;;
23242;SDS011;11790;49.578;11.214;2022-07-29T16:05:18;4.03;;;2.95;;
23242;SDS011;11790;49.578;11.214;2022-07-29T16:10:18;4.05;;;3.40;;
23242;SDS011;11790;49.578;11.214;2022-07-29T16:15:18;5.72;;;3.33;;
23242;SDS011;11790;49.578;11.214;2022-07-29T16:20:18;4.07;;;3.25;;
23242;SDS011;11790;49.578;11.214;2022-07-29T16:25:19;6.10;;;3.22;;
23242;SDS011;11790;49.578;11.214;2022-07-29T16:30:20;4.07;;;2.90;;
23242;SDS011;11790;49.578;11.214;2022-07-29T16:35:22;4.25;;;3.13;;
23242;SDS011;11790;49.578;11.214;2022-07-29T16:40:22;3.58;;;3.00;;
23242;SDS011;11790;49.578;11.214;2022-07-29T16:45:22;4.17;;;2.73;;
23242;SDS011;11790;49.578;11.214;2022-07-29T16:50:22;3.63;;;3.05;;
23242;SDS011;11790;49.578;11.214;2022-07-29T16:55:24;3.90;;;3.00;;
23242;SDS011;11790;49.578;11.214;2022-07-29T17:00:24;4.00;;;2.95;;
23242;SDS011;11790;49.578;11.214;2022-07-29T17:05:25;3.35;;;2.55;;
23242;SDS011;11790;49.578;11.214;2022-07-29T17:10:25;4.82;;;2.80;;
23242;SDS011;11790;49.578;11.214;2022-07-29T17:15:26;4.90;;;3.40;;
23242;SDS011;11790;49.578;11.214;2022-07-29T17:20:26;5.35;;;3.10;;
23242;SDS011;11790;49.578;11.214;2022-07-29T17:25:27;3.63;;;2.80;;
23242;SDS011;11790;49.578;11.214;2022-07-29T17:30:27;3.17;;;2.75;;
23242;SDS011;11790;49.578;11.214;2022-07-29T17:35:28;5.40;;;3.40;;
23242;SDS011;11790;49.578;11.214;2022-07-29T17:40:46;4.55;;;2.58;;
23242;SDS011;11790;49.578;11.214;2022-07-29T17:45:47;5.32;;;3.30;;
23242;SDS011;11790;49.578;11.214;2022-07-29T17:50:47;3.80;;;2.80;;
23242;SDS011;11790;49.578;11.214;2022-07-29T17:55:47;7.00;;;2.72;;
23242;SDS011;11790;49.578;11.214;2022-07-29T18:00:48;4.15;;;3.13;;
23242;SDS011;11790;49.578;11.214;2022-07-29T18:05:48;6.40;;;3.38;;
23242;SDS011;11790;49.578;11.214;2022-07-29T18:10:49;4.23;;;3.00;;
23242;SDS011;11790;49.578;11.214;2022-07-29T18:15:49;5.67;;;3.13;;
23242;SDS011;11790;49.578;11.214;2022-07-29T18:20:49;4.25;;;3.28;;
23242;SDS011;11790;49.578;11.214;2022-07-29T18:25:50;4.30;;;3.00;;
23242;SDS011;11790;49.578;11.214;2022-07-29T18:30:50;3.83;;;2.92;;
23242;SDS011;11790;49.578;11.214;2022-07-29T18:35:50;5.35;;;3.60;;
23242;SDS011;11790;49.578;11.214;2022-07-29T18:40:51;6.18;;;3.83;;
23242;SDS011;11790;49.578;11.214;2022-07-29T18:45:51;7.18;;;3.92;;
23242;SDS011;11790;49.578;11.214;2022-07-29T18:50:51;5.75;;;3.60;;
23242;SDS011;11790;49.578;11.214;2022-07-29T18:55:52;4.82;;;3.22;;
23242;SDS011;11790;49.578;11.214;2022-07-29T19:00:52;4.57;;;3.58;;
23242;SDS011;11790;49.578;11.214;2022-07-29T19:05:52;4.45;;;3.65;;
23242;SDS011;11790;49.578;11.214;2022-07-29T19:10:52;5.97;;;4.05;;
23242;SDS011;11790;49.578;11.214;2022-07-29T19:15:53;5.85;;;4.57;;
23242;SDS011;11790;49.578;11.214;2022-07-29T19:20:53;4.28;;;3.85;;
23242;SDS011;11790;49.578;11.214;2022-07-29T19:25:53;4.83;;;4.23;;
23242;SDS011;11790;49.578;11.214;2022-07-29T19:30:53;7.22;;;4.53;;
23242;SDS011;11790;49.578;11.214;2022-07-29T19:35:54;6.53;;;4.50;;
23242;SDS011;11790;49.578;11.214;2022-07-29T19:40:54;8.00;;;4.90;;
23242;SDS011;11790;49.578;11.214;2022-07-29T19:45:55;7.05;;;4.78;;
23242;SDS011;11790;49.578;11.214;2022-07-29T19:50:55;6.95;;;4.55;;
23242;SDS011;11790;49.578;11.214;2022-07-29T19:55:56;5.87;;;4.27;;
23242;SDS011;11790;49.578;11.214;2022-07-29T20:00:57;6.43;;;4.90;;
23242;SDS011;11790;49.578;11.214;2022-07-29T20:05:57;5.90;;;4.68;;
23242;SDS011;11790;49.578;11.214;2022-07-29T20:10:58;5.65;;;4.30;;
23242;SDS011;11790;49.578;11.214;2022-07-29T20:15:59;5.95;;;4.57;;
23242;SDS011;11790;49.578;11.214;2022-07-29T20:20:59;6.50;;;4.47;;
23242;SDS011;11790;49.578;11.214;2022-07-29T20:26:00;5.30;;;4.50;;
23242;SDS011;11790;49.578;11.214;2022-07-29T20:31:00;6.93;;;4.65;;
23242;SDS011;11790;49.578;11.214;2022-07-29T20:36:00;5.40;;;4.63;;
23242;SDS011;11790;49.578;11.214;2022-07-29T20:41:00;6.75;;;4.22;;
23242;SDS011;11790;49.578;11.214;2022-07-29T20:46:01;6.30;;;4.95;;
23242;SDS011;11790;49.578;11.214;2022-07-29T20:51:01;7.72;;;5.05;;
23242;SDS011;11790;49.578;11.214;2022-07-29T20:56:01;5.53;;;4.50;;
23242;SDS011;11790;49.578;11.214;2022-07-29T21:01:02;5.63;;;4.30;;
23242;SDS011;11790;49.578;11.214;2022-07-29T21:06:02;6.05;;;4.40;;
23242;SDS011;11790;49.578;11.214;2022-07-29T21:11:03;4.67;;;4.17;;
23242;SDS011;11790;49.578;11.214;2022-07-29T21:16:04;6.97;;;4.28;;
23242;SDS011;11790;49.578;11.214;2022-07-29T21:21:15;4.97;;;3.88;;
23242;SDS011;11790;49.578;11.214;2022-07-29T21:26:15;4.75;;;4.25;;
23242;SDS011;11790;49.578;11.214;2022-07-29T21:31:15;5.57;;;4.57;;
23242;SDS011;11790;49.578;11.214;2022-07-29T21:36:15;4.63;;;4.15;;
23242;SDS011;11790;49.578;11.214;2022-07-29T21:41:16;6.90;;;4.82;;
23242;SDS011;11790;49.578;11.214;2022-07-29T21:46:16;6.05;;;4.40;;
23242;SDS011;11790;49.578;11.214;2022-07-29T21:51:17;5.10;;;4.60;;
23242;SDS011;11790;49.578;11.214;2022-07-29T21:56:17;6.32;;;4.57;;
23242;SDS011;11790;49.578;11.214;2022-07-29T22:01:17;5.03;;;4.53;;
23242;SDS011;11790;49.578;11.214;2022-07-29T22:06:18;5.07;;;4.57;;
23242;SDS011;11790;49.578;11.214;2022-07-29T22:11:18;6.60;;;4.50;;
23242;SDS011;11790;49.578;11.214;2022-07-29T22:16:18;5.03;;;4.18;;
23242;SDS011;11790;49.578;11.214;2022-07-29T22:21:18;5.90;;;4.07;;
23242;SDS011;11790;49.578;11.214;2022-07-29T22:26:19;6.20;;;4.68;;
23242;SDS011;11790;49.578;11.214;2022-07-29T22:31:19;5.47;;;4.32;;
23242;SDS011;11790;49.578;11.214;2022-07-29T22:36:20;5.75;;;4.63;;
23242;SDS011;11790;49.578;11.214;2022-07-29T22:41:20;6.32;;;4.68;;
23242;SDS011;11790;49.578;11.214;2022-07-29T22:46:21;5.43;;;4.68;;
23242;SDS011;11790;49.578;11.214;2022-07-29T22:51:21;5.47;;;4.97;;
23242;SDS011;11790;49.578;11.214;2022-07-29T22:56:21;4.80;;;4.30;;
23242;SDS011;11790;49.578;11.214;2022-07-29T23:01:22;7.35;;;5.05;;
23242;SDS011;11790;49.578;11.214;2022-07-29T23:06:22;6.22;;;5.63;;
23242;SDS011;11790;49.578;11.214;2022-07-29T23:11:23;6.00;;;5.32;;
23242;SDS011;11790;49.578;11.214;2022-07-29T23:16:23;7.20;;;5.60;;
23242;SDS011;11790;49.578;11.214;2022-07-29T23:21:23;10.10;;;5.93;;
23242;SDS011;11790;49.578;11.214;2022-07-29T23:26:24;7.65;;;5.95;;
23242;SDS011;11790;49.578;11.214;2022-07-29T23:31:25;6.97;;;6.18;;
23242;SDS011;11790;49.578;11.214;2022-07-29T23:36:25;7.43;;;6.05;;
23242;SDS011;11790;49.578;11.214;2022-07-29T23:41:29;8.15;;;6.60;;
23242;SDS011;11790;49.578;11.214;2022-07-29T23:46:29;9.82;;;7.00;;
23242;SDS011;11790;49.578;11.214;2022-07-29T23:51:29;8.80;;;6.40;;
23242;SDS011;11790;49.578;11.214;2022-07-29T23:56:29;15.77;;;7.35;;
